Aérodrome :
LOGIN :

S'inscrire | Disclaimer

   EN    FR    IT 

 










Légende :    VFR   VFR Marginal   IFR   IFR Intensif   IFR Très Intensif
Visi : 
Plafond : 
>= 8 km
>= 3000ft
5 à 8 km
1000 à 3000 ft
1500m à 5 km
500 à 1000 ft
800 à 1500m
200 à 500 ft
< 800m
< 200 ft
Symboles :   Orages  Brouillard  Fortes neiges  Fortes précipitations  Vent > 20 kt
SIGMETs :   Divers  Orages  Givrage  Turbulence  Onde Orograph.  Cendres Volcan.






- Altitude de l'aérodrome : 335 ft
- Code IATA : BEG


LYBE - Belgrade Nikola Tesla

DERNIER METAR :
  • 290630Z 24008KT CAVOK 09/03 Q1012 NOSIG

METARs EXPIRÉS :
  • 290600Z 23007KT 9000 NSC 07/02 Q1012 NOSIG
  • 290530Z 22006KT 8000 NSC 07/02 Q1012 NOSIG
  • 290500Z 21005KT 8000 NSC 06/02 Q1012 NOSIG
  • 290430Z 20005KT 8000 NSC 06/02 Q1011 NOSIG
  • 290400Z 20005KT CAVOK 07/02 Q1012 NOSIG

TAF TAF LYBE
Valide du 29 à 06h jusqu'au 30 à 06h UTC


290500Z 2906/3006 26006KT CAVOK TX17/2913Z TN04/3004Z
TEMPO 2909/2916 32014KT
PROB30
TEMPO 2910/2914 5000 SHRA SCT030TCU SCT040



MET'MAP, la Météo Aéronautique d'un coup d'oeil ! - Copyright ORBIFLY Décembre 2007 - Disclaimer

ORBIFLY MET'MAP TEAM :

Programmation & Développement : Alexandra Zaïnal
Sur une idée originale de : Baudouin d'Aumeries
Assistance à la programmation : Marc-Olivier Méhu
Soutien technique & logistique : Manuel Goepfert

Contact : metmap@orbifly.com




SOURCES & CREDITS :

   NOAA